Resolute — WTW2234 — position and weather

sailwx.info

Track history (hours):
 
Tides and Currents Weather Stations Pressure Air Temp Water Temp Dewpoint Dewpoint Depression Visibility Wind Speed Wind Dir Waves Ship Positions

Resolute

More information available from US FCC via Universal Licensing System and Coast Guard Vessel Documentation Center.

Last reported at 2014-Sep-16 07:26 UTC. Time now 2014-Sep-17 09:39 UTC.
Position N 40°43' W 074°02'.

Length 30 m; draft 4 m.

Type: Tug. MMSI: 367091630.

Date/timePositionNaut miles runAvg speedWind from/ knotsBaromVisibWave heightAir tempDewpointWater temp
2014-Sep-16 07:26N 40°43' W 074°02'6 6.4
2014-Sep-16 06:32N 40°39' W 074°07'5 4.9
2014-Sep-16 05:33N 40°36' W 074°12'3 3.2
2014-Sep-16 04:34N 40°39' W 074°11'1 0.8
2014-Sep-16 03:24N 40°38' W 074°10'2 2.8
2014-Sep-16 02:33N 40°40' W 074°08'1 0.7
2014-Sep-16 01:33N 40°41' W 074°09'4 4.1
2014-Sep-16 00:31N 40°39' W 074°04'4 4.5
2014-Sep-15 23:32N 40°38' W 074°10'0 0.0
2014-Sep-15 22:32N 40°38' W 074°10'0 0.0
2014-Sep-15 21:19N 40°38' W 074°10'0 0.0
2014-Sep-15 20:33N 40°38' W 074°10'0 0.0
2014-Sep-15 19:25N 40°38' W 074°10'1 0.7
2014-Sep-15 17:23N 40°38' W 074°12'7 7.9
2014-Sep-15 16:33N 40°39' W 074°03'3 3.2
2014-Sep-15 15:32N 40°42' W 074°00'6 5.8
2014-Sep-15 14:32N 40°47' W 073°56'7 7.3
2014-Sep-15 13:34N 40°49' W 073°47'9 8.7
2014-Sep-15 12:32N 40°55' W 073°39'8 8.6
2014-Sep-15 11:33N 41°00' W 073°30'9 8.5
2014-Sep-15 10:33N 41°04' W 073°20'9 8.7
2014-Sep-15 09:33N 41°06' W 073°09'9 8.6
2014-Sep-15 08:33N 41°11' W 072°59'7 6.8
2014-Sep-15 07:33N 41°17' W 072°55'1 0.9
2014-Sep-15 06:34N 41°18' W 072°54'0 0.1
2014-Sep-15 05:34N 41°18' W 072°54'0 0.0
2014-Sep-15 04:33N 41°18' W 072°54'0 0.0
2014-Sep-15 03:33N 41°18' W 072°54'0 0.0
2014-Sep-15 02:33N 41°18' W 072°54'0 0.0
2014-Sep-15 01:33N 41°18' W 072°54'0 0.0
2014-Sep-15 00:34N 41°18' W 072°54'0 0.0
2014-Sep-14 23:29N 41°18' W 072°54'0 0.0
2014-Sep-14 22:33N 41°18' W 072°54'0 0.0
2014-Sep-14 21:30N 41°18' W 072°54'3 2.8
2014-Sep-14 20:30N 41°15' W 072°55'3 3.6
2014-Sep-14 19:34N 41°12' W 072°58'1 0.6
2014-Sep-14 18:34N 41°12' W 072°58'0 0.0
2014-Sep-14 17:33N 41°12' W 072°58'0 0.0
2014-Sep-14 16:34N 41°12' W 072°58'0 0.0
2014-Sep-14 15:29N 41°12' W 072°58'1 1.3
2014-Sep-14 14:31N 41°11' W 072°60'6 6.2
2014-Sep-14 13:33N 41°07' W 073°05'6 6.4
2014-Sep-14 12:33N 41°05' W 073°13'7 6.8
2014-Sep-14 11:33N 41°03' W 073°22'7 7.1
2014-Sep-14 10:31N 40°59' W 073°30'8 6.8
2014-Sep-14 09:21N 40°55' W 073°39'6 6.4
2014-Sep-14 08:25N 40°51' W 073°45'4 5.0
2014-Sep-14 07:33N 40°48' W 073°50'5 5.4
2014-Sep-14 06:33N 40°47' W 073°56'4 4.2
2014-Sep-14 05:33N 40°43' W 073°58'4 3.7
2014-Sep-14 04:32N 40°40' W 074°02'0 0.1
2014-Sep-14 03:25N 40°40' W 074°02'0 0.0
2014-Sep-14 02:20N 40°40' W 074°02'9 0.6
2014-Sep-13 11:31N 40°36' W 074°12'4 3.7
2014-Sep-13 10:33N 40°39' W 074°10'0 0.1
2014-Sep-13 09:29N 40°38' W 074°10'0 0.0
2014-Sep-13 08:33N 40°38' W 074°10'0 0.0
2014-Sep-13 07:20N 40°38' W 074°10'0 0.0
2014-Sep-13 06:33N 40°38' W 074°10'0 0.0
2014-Sep-13 05:30N 40°38' W 074°10'3 2.6
2014-Sep-13 04:26N 40°36' W 074°12'1 0.7
2014-Sep-13 03:28N 40°37' W 074°12'1 1.3
2014-Sep-13 02:31N 40°38' W 074°12'7 6.8
2014-Sep-13 01:30N 40°39' W 074°03'1 1.2
2014-Sep-13 00:33N 40°39' W 074°04'4 4.1
2014-Sep-12 23:32N 40°38' W 074°10'0 0.2
2014-Sep-12 22:31N 40°38' W 074°10'1 1.0
2014-Sep-12 21:32N 40°39' W 074°09'5 4.6
2014-Sep-12 20:32N 40°37' W 074°03'5 4.8
2014-Sep-12 19:27N 40°38' W 074°10'0 0.0
2014-Sep-12 18:33N 40°38' W 074°10'0 0.1
2014-Sep-12 17:33N 40°39' W 074°10'4 1.9
2014-Sep-12 15:12N 40°35' W 074°13'2 2.1
2014-Sep-12 14:22N 40°36' W 074°12'3 3.7
2014-Sep-12 13:26N 40°39' W 074°09'5 5.9
2014-Sep-12 12:33N 40°40' W 074°02'0 0.0
2014-Sep-12 11:34N 40°40' W 074°02'0 0.0
2014-Sep-12 10:34N 40°40' W 074°02'0 0.0
2014-Sep-12 09:31N 40°40' W 074°02'0 0.0
2014-Sep-12 08:32N 40°40' W 074°02'0 0.0
2014-Sep-12 07:34N 40°40' W 074°02'0 0.0
2014-Sep-12 06:33N 40°40' W 074°02'0 0.0
2014-Sep-12 05:29N 40°40' W 074°02'1 0.6
2014-Sep-12 04:33N 40°39' W 074°03'6 5.6
2014-Sep-12 03:33N 40°38' W 074°10'0 0.0
2014-Sep-12 02:20N 40°38' W 074°10'0 0.0
2014-Sep-12 01:33N 40°38' W 074°10'0 0.0
2014-Sep-12 00:34N 40°38' W 074°10'0 0.0
2014-Sep-11 23:32N 40°38' W 074°10'1 0.8
2014-Sep-11 22:33N 40°39' W 074°11'6 5.5
2014-Sep-11 21:28N 40°33' W 074°14'0 0.0
2014-Sep-11 20:30N 40°33' W 074°14'0 0.0
2014-Sep-11 19:33N 40°33' W 074°14'0 0.0
2014-Sep-11 18:30N 40°33' W 074°14'0 0.0
2014-Sep-11 17:32N 40°33' W 074°14'0 0.0
2014-Sep-11 16:32N 40°33' W 074°14'3 3.3
2014-Sep-11 15:32N 40°36' W 074°12'3 2.9
2014-Sep-11 14:33N 40°38' W 074°10'0 0.0
2014-Sep-11 13:33N 40°38' W 074°10'0 0.0
2014-Sep-11 12:33N 40°38' W 074°10'4 3.7
2014-Sep-11 11:33N 40°39' W 074°05'3 2.9
2014-Sep-11 10:33N 40°41' W 074°02'8 7.9
2014-Sep-11 09:33N 40°47' W 073°55'7 6.8
2014-Sep-11 08:33N 40°49' W 073°47'8 7.8
2014-Sep-11 07:33N 40°54' W 073°40'8 8.5
2014-Sep-11 06:34N 40°58' W 073°30'9 8.8
2014-Sep-11 05:33N 41°02' W 073°19'9 9.0
2014-Sep-11 04:34N 41°05' W 073°08'9 9.1
2014-Sep-11 03:34N 41°11' W 072°59'7 6.7
2014-Sep-11 02:33N 41°17' W 072°55'1 0.9
2014-Sep-11 01:33N 41°18' W 072°54'0 0.0
2014-Sep-11 00:32N 41°18' W 072°54'0 0.0
2014-Sep-10 23:33N 41°18' W 072°54'0 0.0
2014-Sep-10 22:29N 41°18' W 072°54'0 0.0
2014-Sep-10 21:33N 41°18' W 072°54'0 0.0
2014-Sep-10 20:33N 41°18' W 072°54'0 0.0
2014-Sep-10 19:30N 41°18' W 072°54'3 2.8
2014-Sep-10 18:33N 41°15' W 072°55'0 0.3
2014-Sep-10 17:33N 41°15' W 072°55'2 2.2
2014-Sep-10 16:32N 41°18' W 072°54'6 5.7
2014-Sep-10 15:34N 41°12' W 072°56'6 6.4
2014-Sep-10 14:34N 41°08' W 073°02'6 5.8
2014-Sep-10 13:33N 41°05' W 073°09'6 5.9
2014-Sep-10 12:34N 41°03' W 073°16'6 5.7
2014-Sep-10 11:34N 41°01' W 073°23'6 6.2
2014-Sep-10 10:33N 40°59' W 073°31'6 6.3
2014-Sep-10 09:34N 40°56' W 073°38'6 6.3
2014-Sep-10 08:33N 40°52' W 073°45'3 3.4
2014-Sep-10 07:33N 40°49' W 073°47'0 0.0
2014-Sep-10 06:33N 40°49' W 073°47'0 0.0
2014-Sep-10 05:33N 40°49' W 073°47'0 0.0
2014-Sep-10 04:32N 40°49' W 073°47'0 0.0
2014-Sep-10 03:33N 40°49' W 073°47'0 0.0
2014-Sep-10 02:33N 40°49' W 073°47'0 0.0
2014-Sep-10 01:33N 40°49' W 073°47'0 0.1
2014-Sep-10 00:33N 40°49' W 073°47'0 0.0
2014-Sep-09 23:33N 40°49' W 073°47'0 0.0
2014-Sep-09 22:33N 40°49' W 073°47'5 4.9
2014-Sep-09 21:33N 40°48' W 073°53'5 5.3
2014-Sep-09 20:33N 40°44' W 073°58'4 4.4
2014-Sep-09 19:33N 40°41' W 074°01'2 2.1
2014-Sep-09 18:33N 40°39' W 074°03'0 0.0
2014-Sep-09 17:33N 40°39' W 074°03'0 0.0
2014-Sep-09 16:33N 40°39' W 074°03'6 6.0
2014-Sep-09 15:33N 40°39' W 074°11'6 5.8
2014-Sep-09 14:34N 40°33' W 074°14'1 0.4
2014-Sep-09 13:03N 40°33' W 074°15'2 2.7
2014-Sep-09 12:28N 40°34' W 074°13'6 6.3
2014-Sep-09 11:34N 40°39' W 074°09'2 1.5
2014-Sep-09 10:33N 40°41' W 074°08'3 2.6
2014-Sep-09 09:31N 40°39' W 074°06'2 2.4
2014-Sep-09 08:33N 40°37' W 074°03'5 5.1
2014-Sep-09 07:33N 40°38' W 074°10'0 0.0
2014-Sep-09 06:33N 40°38' W 074°10'0 0.0
2014-Sep-09 05:33N 40°38' W 074°10'0 0.0
2014-Sep-09 04:33N 40°38' W 074°10'0 0.0
2014-Sep-09 03:33N 40°38' W 074°10'0 0.0
2014-Sep-09 02:33N 40°38' W 074°10'0 0.0
2014-Sep-09 01:33N 40°38' W 074°10'0 0.0
2014-Sep-09 00:33N 40°38' W 074°10'2 2.4
2014-Sep-08 23:33N 40°41' W 074°08'1 0.7
2014-Sep-08 22:33N 40°40' W 074°08'4 4.3
2014-Sep-08 21:33N 40°38' W 074°03'5 4.9
2014-Sep-08 20:33N 40°38' W 074°10'3 2.6
2014-Sep-08 19:32N 40°36' W 074°12'3 3.5
2014-Sep-08 18:33N 40°33' W 074°14'5 4.8
2014-Sep-08 17:32N 40°38' W 074°12'6 6.3
2014-Sep-08 16:33N 40°39' W 074°04'1 0.6
2014-Sep-08 15:33N 40°39' W 074°03'5 3.8
2014-Sep-08 14:14N 40°38' W 074°10'0 0.0
2014-Sep-08 13:30N 40°38' W 074°10'0 0.0
2014-Sep-08 12:33N 40°38' W 074°10'0 0.0
2014-Sep-08 11:32N 40°38' W 074°10'1 1.1
2014-Sep-08 10:33N 40°39' W 074°08'5 5.2
2014-Sep-08 09:33N 40°40' W 074°02'4 4.1
2014-Sep-08 08:31N 40°43' W 073°58'6 6.1
2014-Sep-08 07:29N 40°48' W 073°53'7 7.2
2014-Sep-08 06:33N 40°51' W 073°45'8 8.0
2014-Sep-08 05:34N 40°56' W 073°36'9 8.3
2014-Sep-08 04:30N 40°60' W 073°26'8 8.4
2014-Sep-08 03:32N 41°00' W 073°15'8 7.8
2014-Sep-08 02:32N 40°58' W 073°05'1 1.1
2014-Sep-08 01:33N 40°57' W 073°04'0 0.2
2014-Sep-08 00:33N 40°57' W 073°04'0 0.0
2014-Sep-07 17:32N 40°57' W 073°04'0 0.0
2014-Sep-07 14:33N 40°57' W 073°04'2 2.3
2014-Sep-07 13:33N 40°59' W 073°06'6 6.5
2014-Sep-07 12:33N 40°60' W 073°14'6 6.4
2014-Sep-07 11:33N 41°00' W 073°23'6 5.8
2014-Sep-07 10:33N 40°58' W 073°30'6 6.1
2014-Sep-07 09:33N 40°55' W 073°37'7 6.7
2014-Sep-07 08:32N 40°52' W 073°45'6 6.1
2014-Sep-07 07:33N 40°48' W 073°51'5 5.4
2014-Sep-07 06:33N 40°46' W 073°57'4 4.1
2014-Sep-07 05:33N 40°42' W 074°00'3 2.7
2014-Sep-07 04:33N 40°40' W 074°02'0 0.0
2014-Sep-07 03:33N 40°40' W 074°02'0 0.0
2014-Sep-07 02:33N 40°40' W 074°02'0 0.0
2014-Sep-07 01:33N 40°40' W 074°02'0 0.2
2014-Sep-07 00:33N 40°40' W 074°02'0 0.1
2014-Sep-06 23:33N 40°40' W 074°02'3 3.3
2014-Sep-06 22:33N 40°39' W 074°06'0 0.4
2014-Sep-06 21:33N 40°39' W 074°06'3 2.6
2014-Sep-06 20:31N 40°38' W 074°10'0 0.0
2014-Sep-06 19:33N 40°38' W 074°10'0 0.0
2014-Sep-06 18:30N 40°38' W 074°10'0 0.0
2014-Sep-06 17:22N 40°38' W 074°10'0 0.0
2014-Sep-06 16:32N 40°38' W 074°10'5 5.3
2014-Sep-06 15:33N 40°40' W 074°03'1 1.4
2014-Sep-06 14:33N 40°40' W 074°05'1 0.6
2014-Sep-06 13:33N 40°40' W 074°04'1 0.9
2014-Sep-06 12:33N 40°39' W 074°05'4 4.0
2014-Sep-06 11:33N 40°38' W 074°10'3 2.6
2014-Sep-06 10:33N 40°39' W 074°06'2 2.1
2014-Sep-06 09:33N 40°39' W 074°04'4 3.5
2014-Sep-06 08:33N 40°41' W 074°00'3 3.4
2014-Sep-06 07:33N 40°40' W 074°04'  
Track history (hours):
 
Tides and Currents Weather Stations Pressure Air Temp Water Temp Dewpoint Dewpoint Depression Visibility Wind Speed Wind Dir Waves Ship Positions

Resolute

More information available from US FCC via Universal Licensing System and Coast Guard Vessel Documentation Center.

Last reported at 2014-Sep-16 07:26 UTC. Time now 2014-Sep-17 09:39 UTC.
Position N 40°43' W 074°02'.

Length 30 m; draft 4 m.

Type: Tug. MMSI: 367091630.

Date/timePositionNaut miles runAvg speedWind from/ knotsBaromVisibWave heightAir tempDewpointWater temp
2014-Sep-16 07:26N 40°43' W 074°02'6 6.4
2014-Sep-16 06:32N 40°39' W 074°07'5 4.9
2014-Sep-16 05:33N 40°36' W 074°12'3 3.2
2014-Sep-16 04:34N 40°39' W 074°11'1 0.8
2014-Sep-16 03:24N 40°38' W 074°10'2 2.8
2014-Sep-16 02:33N 40°40' W 074°08'1 0.7
2014-Sep-16 01:33N 40°41' W 074°09'4 4.1
2014-Sep-16 00:31N 40°39' W 074°04'4 4.5
2014-Sep-15 23:32N 40°38' W 074°10'0 0.0
2014-Sep-15 22:32N 40°38' W 074°10'0 0.0
2014-Sep-15 21:19N 40°38' W 074°10'0 0.0
2014-Sep-15 20:33N 40°38' W 074°10'0 0.0
2014-Sep-15 19:25N 40°38' W 074°10'1 0.7
2014-Sep-15 17:23N 40°38' W 074°12'7 7.9
2014-Sep-15 16:33N 40°39' W 074°03'3 3.2
2014-Sep-15 15:32N 40°42' W 074°00'6 5.8
2014-Sep-15 14:32N 40°47' W 073°56'7 7.3
2014-Sep-15 13:34N 40°49' W 073°47'9 8.7
2014-Sep-15 12:32N 40°55' W 073°39'8 8.6
2014-Sep-15 11:33N 41°00' W 073°30'9 8.5
2014-Sep-15 10:33N 41°04' W 073°20'9 8.7
2014-Sep-15 09:33N 41°06' W 073°09'9 8.6
2014-Sep-15 08:33N 41°11' W 072°59'7 6.8
2014-Sep-15 07:33N 41°17' W 072°55'1 0.9
2014-Sep-15 06:34N 41°18' W 072°54'0 0.1
2014-Sep-15 05:34N 41°18' W 072°54'0 0.0
2014-Sep-15 04:33N 41°18' W 072°54'0 0.0
2014-Sep-15 03:33N 41°18' W 072°54'0 0.0
2014-Sep-15 02:33N 41°18' W 072°54'0 0.0
2014-Sep-15 01:33N 41°18' W 072°54'0 0.0
2014-Sep-15 00:34N 41°18' W 072°54'0 0.0
2014-Sep-14 23:29N 41°18' W 072°54'0 0.0
2014-Sep-14 22:33N 41°18' W 072°54'0 0.0
2014-Sep-14 21:30N 41°18' W 072°54'3 2.8
2014-Sep-14 20:30N 41°15' W 072°55'3 3.6
2014-Sep-14 19:34N 41°12' W 072°58'1 0.6
2014-Sep-14 18:34N 41°12' W 072°58'0 0.0
2014-Sep-14 17:33N 41°12' W 072°58'0 0.0
2014-Sep-14 16:34N 41°12' W 072°58'0 0.0
2014-Sep-14 15:29N 41°12' W 072°58'1 1.3
2014-Sep-14 14:31N 41°11' W 072°60'6 6.2
2014-Sep-14 13:33N 41°07' W 073°05'6 6.4
2014-Sep-14 12:33N 41°05' W 073°13'7 6.8
2014-Sep-14 11:33N 41°03' W 073°22'7 7.1
2014-Sep-14 10:31N 40°59' W 073°30'8 6.8
2014-Sep-14 09:21N 40°55' W 073°39'6 6.4
2014-Sep-14 08:25N 40°51' W 073°45'4 5.0
2014-Sep-14 07:33N 40°48' W 073°50'5 5.4
2014-Sep-14 06:33N 40°47' W 073°56'4 4.2
2014-Sep-14 05:33N 40°43' W 073°58'4 3.7
2014-Sep-14 04:32N 40°40' W 074°02'0 0.1
2014-Sep-14 03:25N 40°40' W 074°02'0 0.0
2014-Sep-14 02:20N 40°40' W 074°02'9 0.6
2014-Sep-13 11:31N 40°36' W 074°12'4 3.7
2014-Sep-13 10:33N 40°39' W 074°10'0 0.1
2014-Sep-13 09:29N 40°38' W 074°10'0 0.0
2014-Sep-13 08:33N 40°38' W 074°10'0 0.0
2014-Sep-13 07:20N 40°38' W 074°10'0 0.0
2014-Sep-13 06:33N 40°38' W 074°10'0 0.0
2014-Sep-13 05:30N 40°38' W 074°10'3 2.6
2014-Sep-13 04:26N 40°36' W 074°12'1 0.7
2014-Sep-13 03:28N 40°37' W 074°12'1 1.3
2014-Sep-13 02:31N 40°38' W 074°12'7 6.8
2014-Sep-13 01:30N 40°39' W 074°03'1 1.2
2014-Sep-13 00:33N 40°39' W 074°04'4 4.1
2014-Sep-12 23:32N 40°38' W 074°10'0 0.2
2014-Sep-12 22:31N 40°38' W 074°10'1 1.0
2014-Sep-12 21:32N 40°39' W 074°09'5 4.6
2014-Sep-12 20:32N 40°37' W 074°03'5 4.8
2014-Sep-12 19:27N 40°38' W 074°10'0 0.0
2014-Sep-12 18:33N 40°38' W 074°10'0 0.1
2014-Sep-12 17:33N 40°39' W 074°10'4 1.9
2014-Sep-12 15:12N 40°35' W 074°13'2 2.1
2014-Sep-12 14:22N 40°36' W 074°12'3 3.7
2014-Sep-12 13:26N 40°39' W 074°09'5 5.9
2014-Sep-12 12:33N 40°40' W 074°02'0 0.0
2014-Sep-12 11:34N 40°40' W 074°02'0 0.0
2014-Sep-12 10:34N 40°40' W 074°02'0 0.0
2014-Sep-12 09:31N 40°40' W 074°02'0 0.0
2014-Sep-12 08:32N 40°40' W 074°02'0 0.0
2014-Sep-12 07:34N 40°40' W 074°02'0 0.0
2014-Sep-12 06:33N 40°40' W 074°02'0 0.0
2014-Sep-12 05:29N 40°40' W 074°02'1 0.6
2014-Sep-12 04:33N 40°39' W 074°03'6 5.6
2014-Sep-12 03:33N 40°38' W 074°10'0 0.0
2014-Sep-12 02:20N 40°38' W 074°10'0 0.0
2014-Sep-12 01:33N 40°38' W 074°10'0 0.0
2014-Sep-12 00:34N 40°38' W 074°10'0 0.0
2014-Sep-11 23:32N 40°38' W 074°10'1 0.8
2014-Sep-11 22:33N 40°39' W 074°11'6 5.5
2014-Sep-11 21:28N 40°33' W 074°14'0 0.0
2014-Sep-11 20:30N 40°33' W 074°14'0 0.0
2014-Sep-11 19:33N 40°33' W 074°14'0 0.0
2014-Sep-11 18:30N 40°33' W 074°14'0 0.0
2014-Sep-11 17:32N 40°33' W 074°14'0 0.0
2014-Sep-11 16:32N 40°33' W 074°14'3 3.3
2014-Sep-11 15:32N 40°36' W 074°12'3 2.9
2014-Sep-11 14:33N 40°38' W 074°10'0 0.0
2014-Sep-11 13:33N 40°38' W 074°10'0 0.0
2014-Sep-11 12:33N 40°38' W 074°10'4 3.7
2014-Sep-11 11:33N 40°39' W 074°05'3 2.9
2014-Sep-11 10:33N 40°41' W 074°02'8 7.9
2014-Sep-11 09:33N 40°47' W 073°55'7 6.8
2014-Sep-11 08:33N 40°49' W 073°47'8 7.8
2014-Sep-11 07:33N 40°54' W 073°40'8 8.5
2014-Sep-11 06:34N 40°58' W 073°30'9 8.8
2014-Sep-11 05:33N 41°02' W 073°19'9 9.0
2014-Sep-11 04:34N 41°05' W 073°08'9 9.1
2014-Sep-11 03:34N 41°11' W 072°59'7 6.7
2014-Sep-11 02:33N 41°17' W 072°55'1 0.9
2014-Sep-11 01:33N 41°18' W 072°54'0 0.0
2014-Sep-11 00:32N 41°18' W 072°54'0 0.0
2014-Sep-10 23:33N 41°18' W 072°54'0 0.0
2014-Sep-10 22:29N 41°18' W 072°54'0 0.0
2014-Sep-10 21:33N 41°18' W 072°54'0 0.0
2014-Sep-10 20:33N 41°18' W 072°54'0 0.0
2014-Sep-10 19:30N 41°18' W 072°54'3 2.8
2014-Sep-10 18:33N 41°15' W 072°55'0 0.3
2014-Sep-10 17:33N 41°15' W 072°55'2 2.2
2014-Sep-10 16:32N 41°18' W 072°54'6 5.7
2014-Sep-10 15:34N 41°12' W 072°56'6 6.4
2014-Sep-10 14:34N 41°08' W 073°02'6 5.8
2014-Sep-10 13:33N 41°05' W 073°09'6 5.9
2014-Sep-10 12:34N 41°03' W 073°16'6 5.7
2014-Sep-10 11:34N 41°01' W 073°23'6 6.2
2014-Sep-10 10:33N 40°59' W 073°31'6 6.3
2014-Sep-10 09:34N 40°56' W 073°38'6 6.3
2014-Sep-10 08:33N 40°52' W 073°45'3 3.4
2014-Sep-10 07:33N 40°49' W 073°47'0 0.0
2014-Sep-10 06:33N 40°49' W 073°47'0 0.0
2014-Sep-10 05:33N 40°49' W 073°47'0 0.0
2014-Sep-10 04:32N 40°49' W 073°47'0 0.0
2014-Sep-10 03:33N 40°49' W 073°47'0 0.0
2014-Sep-10 02:33N 40°49' W 073°47'0 0.0
2014-Sep-10 01:33N 40°49' W 073°47'0 0.1
2014-Sep-10 00:33N 40°49' W 073°47'0 0.0
2014-Sep-09 23:33N 40°49' W 073°47'0 0.0
2014-Sep-09 22:33N 40°49' W 073°47'5 4.9
2014-Sep-09 21:33N 40°48' W 073°53'5 5.3
2014-Sep-09 20:33N 40°44' W 073°58'4 4.4
2014-Sep-09 19:33N 40°41' W 074°01'2 2.1
2014-Sep-09 18:33N 40°39' W 074°03'0 0.0
2014-Sep-09 17:33N 40°39' W 074°03'0 0.0
2014-Sep-09 16:33N 40°39' W 074°03'6 6.0
2014-Sep-09 15:33N 40°39' W 074°11'6 5.8
2014-Sep-09 14:34N 40°33' W 074°14'1 0.4
2014-Sep-09 13:03N 40°33' W 074°15'2 2.7
2014-Sep-09 12:28N 40°34' W 074°13'6 6.3
2014-Sep-09 11:34N 40°39' W 074°09'2 1.5
2014-Sep-09 10:33N 40°41' W 074°08'3 2.6
2014-Sep-09 09:31N 40°39' W 074°06'2 2.4
2014-Sep-09 08:33N 40°37' W 074°03'5 5.1
2014-Sep-09 07:33N 40°38' W 074°10'0 0.0
2014-Sep-09 06:33N 40°38' W 074°10'0 0.0
2014-Sep-09 05:33N 40°38' W 074°10'0 0.0
2014-Sep-09 04:33N 40°38' W 074°10'0 0.0
2014-Sep-09 03:33N 40°38' W 074°10'0 0.0
2014-Sep-09 02:33N 40°38' W 074°10'0 0.0
2014-Sep-09 01:33N 40°38' W 074°10'0 0.0
2014-Sep-09 00:33N 40°38' W 074°10'2 2.4
2014-Sep-08 23:33N 40°41' W 074°08'1 0.7
2014-Sep-08 22:33N 40°40' W 074°08'4 4.3
2014-Sep-08 21:33N 40°38' W 074°03'5 4.9
2014-Sep-08 20:33N 40°38' W 074°10'3 2.6
2014-Sep-08 19:32N 40°36' W 074°12'3 3.5
2014-Sep-08 18:33N 40°33' W 074°14'5 4.8
2014-Sep-08 17:32N 40°38' W 074°12'6 6.3
2014-Sep-08 16:33N 40°39' W 074°04'1 0.6
2014-Sep-08 15:33N 40°39' W 074°03'5 3.8
2014-Sep-08 14:14N 40°38' W 074°10'0 0.0
2014-Sep-08 13:30N 40°38' W 074°10'0 0.0
2014-Sep-08 12:33N 40°38' W 074°10'0 0.0
2014-Sep-08 11:32N 40°38' W 074°10'1 1.1
2014-Sep-08 10:33N 40°39' W 074°08'5 5.2
2014-Sep-08 09:33N 40°40' W 074°02'4 4.1
2014-Sep-08 08:31N 40°43' W 073°58'6 6.1
2014-Sep-08 07:29N 40°48' W 073°53'7 7.2
2014-Sep-08 06:33N 40°51' W 073°45'8 8.0
2014-Sep-08 05:34N 40°56' W 073°36'9 8.3
2014-Sep-08 04:30N 40°60' W 073°26'8 8.4
2014-Sep-08 03:32N 41°00' W 073°15'8 7.8
2014-Sep-08 02:32N 40°58' W 073°05'1 1.1
2014-Sep-08 01:33N 40°57' W 073°04'0 0.2
2014-Sep-08 00:33N 40°57' W 073°04'0 0.0
2014-Sep-07 17:32N 40°57' W 073°04'0 0.0
2014-Sep-07 14:33N 40°57' W 073°04'2 2.3
2014-Sep-07 13:33N 40°59' W 073°06'6 6.5
2014-Sep-07 12:33N 40°60' W 073°14'6 6.4
2014-Sep-07 11:33N 41°00' W 073°23'6 5.8
2014-Sep-07 10:33N 40°58' W 073°30'6 6.1
2014-Sep-07 09:33N 40°55' W 073°37'7 6.7
2014-Sep-07 08:32N 40°52' W 073°45'6 6.1
2014-Sep-07 07:33N 40°48' W 073°51'5 5.4
2014-Sep-07 06:33N 40°46' W 073°57'4 4.1
2014-Sep-07 05:33N 40°42' W 074°00'3 2.7
2014-Sep-07 04:33N 40°40' W 074°02'0 0.0
2014-Sep-07 03:33N 40°40' W 074°02'0 0.0
2014-Sep-07 02:33N 40°40' W 074°02'0 0.0
2014-Sep-07 01:33N 40°40' W 074°02'0 0.2
2014-Sep-07 00:33N 40°40' W 074°02'0 0.1
2014-Sep-06 23:33N 40°40' W 074°02'3 3.3
2014-Sep-06 22:33N 40°39' W 074°06'0 0.4
2014-Sep-06 21:33N 40°39' W 074°06'3 2.6
2014-Sep-06 20:31N 40°38' W 074°10'0 0.0
2014-Sep-06 19:33N 40°38' W 074°10'0 0.0
2014-Sep-06 18:30N 40°38' W 074°10'0 0.0
2014-Sep-06 17:22N 40°38' W 074°10'0 0.0
2014-Sep-06 16:32N 40°38' W 074°10'5 5.3
2014-Sep-06 15:33N 40°40' W 074°03'1 1.4
2014-Sep-06 14:33N 40°40' W 074°05'1 0.6
2014-Sep-06 13:33N 40°40' W 074°04'1 0.9
2014-Sep-06 12:33N 40°39' W 074°05'4 4.0
2014-Sep-06 11:33N 40°38' W 074°10'3 2.6
2014-Sep-06 10:33N 40°39' W 074°06'2 2.1
2014-Sep-06 09:33N 40°39' W 074°04'4 3.5
2014-Sep-06 08:33N 40°41' W 074°00'3 3.4
2014-Sep-06 07:33N 40°40' W 074°04'  

Dump ship's entire track history